createdAt,value
2018-12-05T00:00:30.669Z,0.00
2018-12-05T00:01:30.696Z,0.00
2018-12-05T00:02:30.687Z,0.00
2018-12-05T00:03:30.664Z,0.00
2018-12-05T00:04:30.623Z,0.00
2018-12-05T00:05:30.617Z,0.00
2018-12-05T00:06:30.608Z,0.00
2018-12-05T00:07:30.623Z,0.00
2018-12-05T00:08:30.587Z,0.00
2018-12-05T00:09:30.572Z,0.00
2018-12-05T00:10:30.600Z,0.00
2018-12-05T00:11:30.548Z,0.00
2018-12-05T00:12:30.559Z,0.00
2018-12-05T00:13:30.541Z,0.00
2018-12-05T00:14:30.531Z,0.00
2018-12-05T00:15:30.502Z,0.00
2018-12-05T00:16:30.543Z,0.00
2018-12-05T00:17:30.503Z,0.00
2018-12-05T00:18:30.470Z,0.00
2018-12-05T00:19:30.460Z,0.00
2018-12-05T00:20:30.471Z,0.00
2018-12-05T00:21:30.445Z,0.00
2018-12-05T00:22:30.439Z,0.00
2018-12-05T00:23:30.438Z,0.00
2018-12-05T00:24:30.407Z,0.00
2018-12-05T00:25:30.394Z,0.00
2018-12-05T00:26:30.394Z,0.00
2018-12-05T00:27:30.376Z,0.00
2018-12-05T00:28:30.408Z,0.00
2018-12-05T00:29:30.395Z,0.00
2018-12-05T00:30:30.337Z,0.00
2018-12-05T00:31:30.336Z,0.00
2018-12-05T00:32:30.324Z,0.00
2018-12-05T00:33:30.347Z,0.00
2018-12-05T00:34:30.295Z,0.00
2018-12-05T00:35:30.282Z,0.00
2018-12-05T00:36:30.326Z,0.00
2018-12-05T00:37:30.267Z,0.00
2018-12-05T00:38:30.285Z,0.00
2018-12-05T00:39:30.254Z,0.00
2018-12-05T00:40:30.251Z,0.00
2018-12-05T00:41:30.218Z,0.00
2018-12-05T00:42:30.224Z,0.00
2018-12-05T00:43:30.208Z,0.00
2018-12-05T00:44:30.189Z,0.00
2018-12-05T00:45:30.189Z,0.00
2018-12-05T00:46:30.181Z,0.00
2018-12-05T00:47:30.160Z,0.00
2018-12-05T00:48:30.155Z,0.00
2018-12-05T00:49:30.138Z,0.00
2018-12-05T00:50:30.141Z,0.00
2018-12-05T00:51:30.142Z,0.00
2018-12-05T00:52:30.123Z,0.00
2018-12-05T00:53:30.094Z,0.00
2018-12-05T00:54:30.092Z,0.00
2018-12-05T00:55:30.063Z,0.00
2018-12-05T00:56:30.054Z,0.00
2018-12-05T00:57:30.072Z,0.00
2018-12-05T00:58:30.053Z,0.00
2018-12-05T00:59:30.017Z,0.00
2018-12-05T01:00:30.011Z,0.00
2018-12-05T01:01:30.007Z,0.00
2018-12-05T01:02:30.097Z,0.00
2018-12-05T01:03:29.984Z,0.00
2018-12-05T01:04:29.962Z,0.00
2018-12-05T01:05:29.949Z,0.00
2018-12-05T01:06:29.960Z,0.00
2018-12-05T01:07:29.952Z,0.00
2018-12-05T01:08:29.934Z,0.00
2018-12-05T01:09:29.907Z,0.00
2018-12-05T01:10:29.894Z,0.00
2018-12-05T01:11:29.894Z,0.00
2018-12-05T01:12:29.928Z,0.00
2018-12-05T01:13:29.893Z,0.00
2018-12-05T01:14:29.870Z,0.00
2018-12-05T01:15:29.856Z,0.00
2018-12-05T01:16:29.830Z,0.00
2018-12-05T01:17:29.815Z,0.00
2018-12-05T01:18:29.827Z,0.00
2018-12-05T01:19:29.798Z,0.00
2018-12-05T01:20:29.813Z,0.00
2018-12-05T01:21:29.770Z,0.00
2018-12-05T01:22:29.805Z,0.00
2018-12-05T01:23:29.764Z,0.00
2018-12-05T01:24:29.785Z,0.00
2018-12-05T01:25:29.736Z,0.00
2018-12-05T01:26:29.715Z,0.00
2018-12-05T01:27:29.720Z,0.00
2018-12-05T01:28:29.714Z,0.00
2018-12-05T01:29:29.733Z,0.00
2018-12-05T01:30:29.671Z,0.00
2018-12-05T01:31:29.665Z,0.00
2018-12-05T01:32:29.650Z,0.00
2018-12-05T01:33:29.650Z,0.00
2018-12-05T01:34:29.661Z,0.00
2018-12-05T01:35:29.612Z,0.00
2018-12-05T01:36:29.604Z,0.00
2018-12-05T01:37:29.621Z,0.00
2018-12-05T01:38:29.598Z,0.00
2018-12-05T01:39:29.589Z,0.00
2018-12-05T01:40:29.558Z,0.00
2018-12-05T01:41:29.600Z,0.00
2018-12-05T01:42:29.542Z,0.00
2018-12-05T01:43:29.525Z,0.00
2018-12-05T01:44:29.526Z,0.00
2018-12-05T01:45:29.501Z,0.00
2018-12-05T01:46:29.556Z,0.00
2018-12-05T01:47:29.500Z,0.00
2018-12-05T01:48:29.508Z,0.00
2018-12-05T01:49:29.516Z,0.00
2018-12-05T01:50:29.452Z,0.00
2018-12-05T01:51:29.436Z,0.00
2018-12-05T01:52:29.443Z,0.00
2018-12-05T01:53:29.452Z,0.00
2018-12-05T01:54:29.417Z,0.00
2018-12-05T01:55:29.394Z,0.00
2018-12-05T01:56:29.381Z,0.00
2018-12-05T01:57:29.406Z,0.00
2018-12-05T01:58:29.403Z,0.00
2018-12-05T01:59:29.357Z,0.00
2018-12-05T02:00:29.332Z,0.00
2018-12-05T02:01:29.337Z,0.00
2018-12-05T02:02:29.326Z,0.00
2018-12-05T02:03:29.312Z,0.00
2018-12-05T02:04:29.309Z,0.00
2018-12-05T02:05:29.317Z,0.00
2018-12-05T02:06:29.272Z,0.00
2018-12-05T02:07:29.254Z,0.00
2018-12-05T02:08:29.241Z,0.00
2018-12-05T02:09:36.761Z,0.00
2018-12-05T02:10:36.783Z,0.00
2018-12-05T02:11:36.747Z,0.00
2018-12-05T02:12:36.737Z,0.00
2018-12-05T02:13:36.722Z,0.00
2018-12-05T02:14:38.181Z,0.00
2018-12-05T02:15:29.178Z,0.00
2018-12-05T02:16:29.158Z,0.00
2018-12-05T02:17:29.146Z,0.00
2018-12-05T02:18:29.130Z,0.00
2018-12-05T02:19:29.154Z,0.00
2018-12-05T02:20:29.143Z,0.00
2018-12-05T02:21:29.101Z,0.00
2018-12-05T02:22:29.107Z,0.00
2018-12-05T02:23:29.143Z,0.00
2018-12-05T02:24:29.079Z,0.00
2018-12-05T02:25:29.068Z,0.00
2018-12-05T02:26:29.077Z,0.00
2018-12-05T02:27:29.056Z,0.00
2018-12-05T02:28:29.023Z,0.00
2018-12-05T02:29:29.012Z,0.00
2018-12-05T02:30:29.014Z,0.00
2018-12-05T02:31:28.990Z,0.00
2018-12-05T02:32:28.994Z,0.00
2018-12-05T02:33:28.962Z,0.00
2018-12-05T02:34:28.996Z,0.00
2018-12-05T02:35:28.957Z,0.00
2018-12-05T02:36:28.933Z,0.00
2018-12-05T02:37:28.919Z,0.00
2018-12-05T02:38:28.912Z,0.00
2018-12-05T02:39:28.897Z,0.00
2018-12-05T02:40:28.900Z,0.00
2018-12-05T02:41:28.871Z,0.00
2018-12-05T02:42:28.896Z,0.00
2018-12-05T02:43:28.882Z,0.00
2018-12-05T02:44:28.862Z,0.00
2018-12-05T02:45:28.880Z,0.00
2018-12-05T02:46:28.839Z,0.00
2018-12-05T02:47:28.822Z,0.00
2018-12-05T02:48:28.822Z,0.00
2018-12-05T02:49:28.795Z,0.00
2018-12-05T02:50:28.839Z,0.00
2018-12-05T02:51:28.780Z,0.00
2018-12-05T02:52:28.751Z,0.00
2018-12-05T02:53:28.739Z,0.00
2018-12-05T02:54:28.735Z,0.00
2018-12-05T02:55:28.734Z,0.00
2018-12-05T02:56:28.718Z,0.00
2018-12-05T02:57:28.717Z,0.00
2018-12-05T02:58:28.683Z,0.00
2018-12-05T02:59:28.676Z,0.00
2018-12-05T03:00:28.681Z,0.00
2018-12-05T03:01:28.700Z,0.00
2018-12-05T03:02:28.639Z,0.00
2018-12-05T03:03:28.627Z,0.00
2018-12-05T03:04:28.612Z,0.00
2018-12-05T03:05:28.609Z,0.00
2018-12-05T03:06:28.611Z,0.00
2018-12-05T03:07:28.580Z,0.00
2018-12-05T03:08:28.574Z,0.00
2018-12-05T03:09:28.560Z,0.00
2018-12-05T03:10:28.565Z,0.00
2018-12-05T03:11:28.547Z,0.00
2018-12-05T03:12:28.523Z,0.00
2018-12-05T03:13:28.570Z,0.00
2018-12-05T03:14:28.499Z,0.00
2018-12-05T03:15:28.521Z,0.00
2018-12-05T03:16:28.516Z,0.00
2018-12-05T03:17:28.483Z,0.00
2018-12-05T03:18:28.455Z,0.00
2018-12-05T03:19:28.446Z,0.00
2018-12-05T03:20:28.455Z,0.00
2018-12-05T03:21:28.439Z,0.00
2018-12-05T03:22:28.415Z,0.00
2018-12-05T03:23:28.415Z,0.00
2018-12-05T03:24:28.388Z,0.00
2018-12-05T03:25:28.435Z,0.00
2018-12-05T03:26:28.410Z,0.00
2018-12-05T03:27:28.365Z,0.00
2018-12-05T03:28:28.375Z,0.00
2018-12-05T03:29:28.361Z,0.00
2018-12-05T03:30:28.326Z,0.00
2018-12-05T03:31:28.323Z,0.00
2018-12-05T03:32:28.346Z,0.00
2018-12-05T03:33:28.313Z,0.00
2018-12-05T03:34:28.308Z,0.00
2018-12-05T03:35:28.268Z,0.00
2018-12-05T03:36:28.275Z,0.00
2018-12-05T03:37:28.241Z,0.00
2018-12-05T03:38:28.247Z,0.00
2018-12-05T03:39:28.221Z,0.00
2018-12-05T03:40:28.234Z,0.00
2018-12-05T03:41:28.240Z,0.00
2018-12-05T03:42:28.193Z,0.00
2018-12-05T03:43:28.197Z,0.00
2018-12-05T03:44:28.168Z,0.00
2018-12-05T03:45:28.156Z,0.00
2018-12-05T03:46:28.173Z,0.00
2018-12-05T03:47:28.162Z,0.00
2018-12-05T03:48:28.167Z,0.00
2018-12-05T03:49:28.112Z,0.00
2018-12-05T03:50:28.107Z,0.00
2018-12-05T03:51:28.092Z,0.00
2018-12-05T03:52:28.090Z,0.00
2018-12-05T03:53:28.066Z,0.00
2018-12-05T03:54:28.057Z,0.00
2018-12-05T03:55:28.043Z,0.00
2018-12-05T03:56:28.056Z,0.00
2018-12-05T03:57:28.080Z,0.00
2018-12-05T03:58:28.010Z,0.00
2018-12-05T03:59:27.995Z,0.00
2018-12-05T04:00:28.010Z,0.00
2018-12-05T04:01:27.976Z,0.00
2018-12-05T04:02:27.995Z,0.00
2018-12-05T04:03:27.950Z,0.00
2018-12-05T04:04:27.954Z,0.00
2018-12-05T04:05:27.980Z,0.00
2018-12-05T04:06:27.943Z,0.00
2018-12-05T04:07:27.920Z,0.00
2018-12-05T04:08:27.897Z,0.00
2018-12-05T04:09:27.888Z,0.00
2018-12-05T04:10:27.872Z,0.00
2018-12-05T04:11:27.860Z,0.00
2018-12-05T04:12:27.865Z,0.00
2018-12-05T04:13:27.871Z,0.00
2018-12-05T04:14:27.867Z,0.00
2018-12-05T04:15:27.815Z,0.00
2018-12-05T04:16:27.807Z,0.00
2018-12-05T04:17:27.834Z,0.00
2018-12-05T04:18:27.787Z,0.00
2018-12-05T04:19:27.789Z,0.00
2018-12-05T04:20:27.798Z,0.00
2018-12-05T04:21:27.777Z,0.00
2018-12-05T04:22:27.784Z,0.00
2018-12-05T04:23:27.727Z,0.00
2018-12-05T04:24:27.720Z,0.00
2018-12-05T04:25:27.705Z,0.00
2018-12-05T04:26:27.815Z,0.00
2018-12-05T04:27:27.727Z,0.00
2018-12-05T04:28:27.672Z,0.00
2018-12-05T04:29:27.711Z,0.00
2018-12-05T04:30:27.656Z,0.00
2018-12-05T04:31:27.699Z,0.00
2018-12-05T04:32:27.651Z,0.00
2018-12-05T04:33:27.631Z,0.00
2018-12-05T04:34:27.604Z,0.00
2018-12-05T04:35:27.607Z,0.00
2018-12-05T04:36:27.613Z,0.00
2018-12-05T04:37:27.594Z,0.00
2018-12-05T04:38:27.566Z,0.00
2018-12-05T04:39:27.547Z,0.00
2018-12-05T04:40:27.537Z,0.00
2018-12-05T04:41:27.554Z,0.00
2018-12-05T04:42:27.543Z,0.00
2018-12-05T04:43:27.528Z,0.00
2018-12-05T04:44:27.494Z,0.00
2018-12-05T04:45:27.481Z,0.00
2018-12-05T04:46:27.469Z,0.00
2018-12-05T04:47:27.457Z,0.00
2018-12-05T04:48:27.460Z,0.00
2018-12-05T04:49:27.539Z,0.00
2018-12-05T04:50:27.447Z,0.00
2018-12-05T04:51:27.434Z,0.00
2018-12-05T04:52:27.453Z,0.00
2018-12-05T04:53:27.419Z,0.00
2018-12-05T04:54:27.408Z,0.00
2018-12-05T04:55:27.389Z,0.00
2018-12-05T04:56:27.371Z,0.00
2018-12-05T04:57:27.351Z,0.00
2018-12-05T04:58:27.350Z,0.00
2018-12-05T04:59:27.323Z,0.00
2018-12-05T05:00:27.313Z,0.00
2018-12-05T05:01:27.301Z,0.00
2018-12-05T05:02:27.292Z,0.00
2018-12-05T05:03:27.293Z,0.00
2018-12-05T05:04:27.289Z,0.00
2018-12-05T05:05:27.271Z,0.00
2018-12-05T05:06:27.265Z,0.00
2018-12-05T05:07:27.234Z,0.00
2018-12-05T05:08:27.260Z,0.00
2018-12-05T05:09:27.216Z,0.00
2018-12-05T05:10:27.201Z,0.00
2018-12-05T05:11:27.205Z,0.00
2018-12-05T05:12:27.212Z,0.00
2018-12-05T05:13:27.183Z,124.00
2018-12-05T05:14:27.158Z,0.00
2018-12-05T05:15:27.166Z,0.00
2018-12-05T05:16:27.137Z,0.00
2018-12-05T05:17:27.124Z,0.00
2018-12-05T05:18:27.127Z,0.00
2018-12-05T05:19:27.103Z,0.00
2018-12-05T05:20:27.103Z,0.00
2018-12-05T05:21:27.152Z,0.00
2018-12-05T05:22:27.071Z,0.00
2018-12-05T05:23:27.079Z,0.00
2018-12-05T05:24:27.049Z,0.00
2018-12-05T05:25:27.052Z,0.00
2018-12-05T05:26:27.057Z,0.00
2018-12-05T05:27:27.035Z,0.00
2018-12-05T05:28:27.025Z,0.00
2018-12-05T05:29:26.983Z,0.00
2018-12-05T05:30:26.981Z,0.00
2018-12-05T05:31:26.965Z,0.00
2018-12-05T05:32:26.951Z,0.00
2018-12-05T05:33:26.959Z,0.00
2018-12-05T05:34:26.972Z,0.00
2018-12-05T05:35:26.920Z,0.00
2018-12-05T05:36:26.946Z,0.00
2018-12-05T05:37:26.913Z,0.00
2018-12-05T05:38:26.917Z,0.00
2018-12-05T05:39:26.883Z,0.00
2018-12-05T05:40:26.879Z,0.00
2018-12-05T05:41:26.865Z,0.00
2018-12-05T05:42:26.861Z,0.00
2018-12-05T05:43:26.875Z,0.00
2018-12-05T05:44:26.838Z,0.00
2018-12-05T05:45:26.825Z,0.00
2018-12-05T05:46:26.796Z,0.00
2018-12-05T05:47:26.786Z,0.00
2018-12-05T05:48:26.832Z,0.00
2018-12-05T05:49:26.810Z,0.00
2018-12-05T05:50:26.747Z,0.00
2018-12-05T05:51:26.770Z,0.00
2018-12-05T05:52:26.759Z,0.00
2018-12-05T05:53:26.735Z,0.00
2018-12-05T05:54:26.715Z,0.00
2018-12-05T05:55:26.731Z,0.00
2018-12-05T05:56:26.693Z,0.00
2018-12-05T05:57:26.673Z,0.00
2018-12-05T05:58:26.676Z,0.00
2018-12-05T05:59:26.649Z,0.00
2018-12-05T06:00:26.638Z,0.00
2018-12-05T06:01:26.631Z,0.00
2018-12-05T06:02:26.635Z,0.00
2018-12-05T06:03:26.640Z,0.00
2018-12-05T06:04:26.607Z,0.00
2018-12-05T06:05:26.609Z,0.00
2018-12-05T06:06:26.603Z,0.00
2018-12-05T06:07:26.567Z,0.00
2018-12-05T06:08:26.580Z,0.00
2018-12-05T06:09:26.537Z,0.00
2018-12-05T06:10:26.579Z,0.00
2018-12-05T06:11:26.518Z,0.00
2018-12-05T06:12:26.534Z,0.00
2018-12-05T06:13:26.499Z,0.00
2018-12-05T06:14:26.506Z,0.00
2018-12-05T06:15:34.010Z,0.00
2018-12-05T06:16:26.467Z,0.00
2018-12-05T06:17:33.972Z,0.00
2018-12-05T06:18:26.435Z,0.00
2018-12-05T06:19:26.434Z,0.00
2018-12-05T06:20:26.612Z,0.00
2018-12-05T06:21:26.419Z,0.00
2018-12-05T06:22:26.390Z,0.00
2018-12-05T06:23:26.380Z,0.00
2018-12-05T06:24:26.398Z,0.00
2018-12-05T06:25:26.361Z,0.00
2018-12-05T06:26:26.348Z,0.00
2018-12-05T06:27:26.335Z,0.00
2018-12-05T06:28:26.325Z,0.00
2018-12-05T06:29:26.329Z,0.00
2018-12-05T06:30:26.326Z,0.00
2018-12-05T06:31:26.291Z,0.00
2018-12-05T06:32:26.276Z,0.00
2018-12-05T06:33:26.299Z,0.00
2018-12-05T06:34:26.269Z,0.00
2018-12-05T06:35:26.265Z,0.00
2018-12-05T06:36:26.246Z,0.00
2018-12-05T06:37:26.257Z,0.00
2018-12-05T06:38:26.221Z,0.00
2018-12-05T06:39:26.217Z,0.00
2018-12-05T06:40:26.188Z,0.00
2018-12-05T06:41:26.203Z,0.00
2018-12-05T06:42:26.172Z,0.00
2018-12-05T06:43:26.158Z,0.00
2018-12-05T06:44:26.188Z,0.00
2018-12-05T06:45:26.142Z,0.00
2018-12-05T06:46:26.144Z,0.00
2018-12-05T06:47:27.890Z,0.00
2018-12-05T06:48:26.107Z,0.00
2018-12-05T06:49:26.099Z,0.00
2018-12-05T06:50:26.103Z,0.00
2018-12-05T06:51:26.063Z,0.00
2018-12-05T06:52:26.056Z,0.00
2018-12-05T06:53:26.041Z,0.00
2018-12-05T06:54:26.059Z,0.00
2018-12-05T06:55:26.029Z,0.00
2018-12-05T06:56:26.025Z,0.00
2018-12-05T06:57:26.000Z,0.00
2018-12-05T06:58:25.992Z,0.00
2018-12-05T06:59:25.998Z,0.00
2018-12-05T07:00:26.004Z,0.00
2018-12-05T07:01:25.955Z,0.00
2018-12-05T07:02:25.940Z,4.00
2018-12-05T07:03:25.934Z,0.00
2018-12-05T07:04:25.982Z,0.00
2018-12-05T07:05:25.929Z,0.00
2018-12-05T07:06:25.907Z,0.00
2018-12-05T07:07:25.899Z,0.00
2018-12-05T07:08:25.873Z,0.00
2018-12-05T07:09:25.877Z,4.00
2018-12-05T07:10:25.869Z,4.00
2018-12-05T07:11:25.864Z,4.00
2018-12-05T07:12:25.846Z,4.00
2018-12-05T07:13:25.823Z,4.00
2018-12-05T07:14:25.817Z,0.00
2018-12-05T07:15:25.826Z,0.00
2018-12-05T07:16:25.795Z,0.00
2018-12-05T07:17:25.775Z,0.00
2018-12-05T07:18:25.760Z,4.00
2018-12-05T07:19:25.762Z,4.00
2018-12-05T07:20:25.753Z,4.00
2018-12-05T07:21:25.736Z,4.00
2018-12-05T07:22:25.743Z,4.00
2018-12-05T07:23:25.744Z,8.00
2018-12-05T07:24:25.714Z,4.00
2018-12-05T07:25:25.682Z,8.00
2018-12-05T07:26:25.713Z,4.00
2018-12-05T07:27:25.667Z,8.00
2018-12-05T07:28:25.650Z,8.00
2018-12-05T07:29:25.685Z,4.00
2018-12-05T07:30:29.416Z,8.00
2018-12-05T07:31:25.616Z,8.00
2018-12-05T07:32:25.601Z,8.00
2018-12-05T07:33:25.645Z,8.00
2018-12-05T07:34:25.580Z,12.00
2018-12-05T07:35:25.582Z,8.00
2018-12-05T07:36:25.602Z,12.00
2018-12-05T07:37:25.575Z,12.00
2018-12-05T07:38:25.574Z,12.00
2018-12-05T07:39:25.541Z,12.00
2018-12-05T07:40:25.527Z,12.00
2018-12-05T07:41:25.503Z,12.00
2018-12-05T07:42:25.519Z,16.00
2018-12-05T07:43:25.485Z,16.00
2018-12-05T07:44:25.474Z,16.00
2018-12-05T07:45:25.489Z,20.00
2018-12-05T07:46:25.486Z,24.00
2018-12-05T07:47:25.434Z,20.00
2018-12-05T07:48:25.423Z,20.00
2018-12-05T07:49:26.285Z,24.00
2018-12-05T07:50:25.415Z,24.00
2018-12-05T07:51:25.412Z,28.00
2018-12-05T07:52:25.377Z,32.00
2018-12-05T07:53:25.379Z,28.00
2018-12-05T07:54:25.361Z,32.00
2018-12-05T07:55:25.370Z,32.00
2018-12-05T07:56:25.386Z,28.00
2018-12-05T07:57:25.359Z,28.00
2018-12-05T07:58:25.318Z,24.00
2018-12-05T07:59:25.307Z,24.00
2018-12-05T08:00:25.301Z,24.00
2018-12-05T08:01:25.324Z,28.00
2018-12-05T08:02:25.294Z,28.00
2018-12-05T08:03:25.282Z,36.00
2018-12-05T08:04:25.300Z,32.00
2018-12-05T08:05:25.269Z,32.00
2018-12-05T08:06:25.222Z,36.00
2018-12-05T08:07:25.221Z,36.00
2018-12-05T08:08:25.219Z,36.00
2018-12-05T08:09:25.227Z,36.00
2018-12-05T08:10:25.186Z,36.00
2018-12-05T08:11:25.182Z,36.00
2018-12-05T08:12:25.152Z,36.00
2018-12-05T08:13:25.166Z,32.00
2018-12-05T08:14:25.128Z,32.00
2018-12-05T08:15:25.170Z,32.00
2018-12-05T08:16:25.123Z,32.00
2018-12-05T08:17:25.103Z,32.00
2018-12-05T08:18:25.087Z,32.00
2018-12-05T08:19:25.157Z,36.00
2018-12-05T08:20:25.093Z,36.00
2018-12-05T08:21:25.071Z,36.00
2018-12-05T08:22:25.048Z,36.00
2018-12-05T08:23:25.055Z,36.00
2018-12-05T08:24:25.053Z,36.00
2018-12-05T08:25:25.032Z,36.00
2018-12-05T08:26:24.999Z,36.00
2018-12-05T08:27:24.988Z,40.00
2018-12-05T08:28:24.986Z,40.00
2018-12-05T08:29:24.963Z,40.00
2018-12-05T08:30:24.961Z,44.00
2018-12-05T08:31:24.942Z,44.00
2018-12-05T08:32:24.951Z,40.00
2018-12-05T08:33:25.001Z,48.00
2018-12-05T08:34:24.938Z,52.00
2018-12-05T08:35:24.945Z,52.00
2018-12-05T08:36:24.897Z,56.00
2018-12-05T08:37:24.875Z,56.00
2018-12-05T08:38:24.878Z,60.00
2018-12-05T08:39:24.869Z,56.00
2018-12-05T08:40:24.869Z,60.00
2018-12-05T08:41:24.853Z,60.00
2018-12-05T08:42:24.815Z,68.00
2018-12-05T08:43:24.808Z,56.00
2018-12-05T08:44:24.792Z,76.00
2018-12-05T08:45:24.813Z,88.00
2018-12-05T08:46:24.794Z,92.00
2018-12-05T08:47:24.769Z,96.00
2018-12-05T08:48:24.812Z,104.00
2018-12-05T08:49:24.758Z,108.00
2018-12-05T08:50:24.724Z,108.00
2018-12-05T08:51:24.789Z,80.00
2018-12-05T08:52:24.712Z,76.00
2018-12-05T08:53:24.715Z,80.00
2018-12-05T08:54:24.719Z,72.00
2018-12-05T08:55:24.701Z,64.00
2018-12-05T08:56:24.701Z,64.00
2018-12-05T08:57:24.680Z,64.00
2018-12-05T08:58:24.644Z,60.00
2018-12-05T08:59:24.624Z,64.00
2018-12-05T09:00:24.622Z,64.00
2018-12-05T09:01:24.639Z,64.00
2018-12-05T09:02:24.628Z,80.00
2018-12-05T09:03:24.580Z,72.00
2018-12-05T09:04:24.590Z,80.00
2018-12-05T09:05:24.590Z,88.00
2018-12-05T09:06:24.564Z,100.00
2018-12-05T09:07:24.571Z,100.00
2018-12-05T09:08:24.526Z,96.00
2018-12-05T09:09:24.582Z,96.00
2018-12-05T09:10:24.512Z,104.00
2018-12-05T09:11:24.501Z,112.00
2018-12-05T09:12:24.483Z,116.00
2018-12-05T09:13:24.469Z,120.00
2018-12-05T09:14:28.749Z,136.00
2018-12-05T09:15:24.458Z,140.00
2018-12-05T09:16:24.454Z,116.00
2018-12-05T09:17:24.482Z,116.00
2018-12-05T09:18:24.435Z,108.00
2018-12-05T09:19:24.404Z,136.00
2018-12-05T09:20:24.395Z,152.00
2018-12-05T09:21:24.412Z,148.00
2018-12-05T09:22:24.367Z,128.00
2018-12-05T09:23:24.361Z,152.00
2018-12-05T09:24:24.427Z,152.00
2018-12-05T09:25:24.337Z,144.00
2018-12-05T09:26:24.324Z,140.00
2018-12-05T09:27:24.329Z,140.00
2018-12-05T09:28:24.371Z,144.00
2018-12-05T09:29:24.302Z,152.00
2018-12-05T09:30:24.301Z,120.00
2018-12-05T09:31:24.275Z,84.00
2018-12-05T09:32:24.299Z,76.00
2018-12-05T09:33:24.243Z,72.00
2018-12-05T09:34:24.232Z,72.00
2018-12-05T09:35:24.287Z,72.00
2018-12-05T09:36:24.212Z,84.00
2018-12-05T09:37:24.214Z,76.00
2018-12-05T09:38:24.200Z,72.00
2018-12-05T09:39:24.189Z,76.00
2018-12-05T09:40:24.165Z,72.00
2018-12-05T09:41:24.183Z,72.00
2018-12-05T09:42:24.172Z,72.00
2018-12-05T09:43:24.132Z,76.00
2018-12-05T09:44:24.144Z,76.00
2018-12-05T09:45:24.115Z,84.00
2018-12-05T09:46:24.122Z,88.00
2018-12-05T09:47:24.101Z,112.00
2018-12-05T09:48:24.077Z,104.00
2018-12-05T09:49:24.063Z,104.00
2018-12-05T09:50:24.064Z,104.00
2018-12-05T09:51:24.048Z,120.00
2018-12-05T09:52:24.075Z,136.00
2018-12-05T09:53:24.023Z,112.00
2018-12-05T09:54:24.025Z,100.00
2018-12-05T09:55:23.996Z,92.00
2018-12-05T09:56:23.988Z,88.00
2018-12-05T09:57:23.991Z,84.00
2018-12-05T09:58:23.989Z,84.00
2018-12-05T09:59:23.970Z,84.00
2018-12-05T10:00:23.956Z,84.00
2018-12-05T10:01:23.940Z,84.00
2018-12-05T10:02:23.935Z,80.00
2018-12-05T10:03:23.915Z,80.00
2018-12-05T10:04:23.918Z,76.00
2018-12-05T10:05:23.885Z,76.00
2018-12-05T10:06:23.918Z,72.00
2018-12-05T10:07:23.958Z,76.00
2018-12-05T10:08:23.879Z,76.00
2018-12-05T10:09:23.853Z,80.00
2018-12-05T10:10:23.832Z,76.00
2018-12-05T10:11:23.820Z,80.00
2018-12-05T10:12:23.821Z,76.00
2018-12-05T10:13:23.793Z,80.00
2018-12-05T10:14:23.779Z,80.00
2018-12-05T10:15:23.776Z,76.00
2018-12-05T10:16:23.782Z,84.00
2018-12-05T10:17:23.771Z,80.00
2018-12-05T10:18:23.745Z,88.00
2018-12-05T10:19:23.749Z,112.00
2018-12-05T10:20:23.713Z,100.00
2018-12-05T10:21:23.704Z,136.00
2018-12-05T10:22:23.726Z,172.00
2018-12-05T10:23:23.740Z,184.00
2018-12-05T10:24:32.750Z,188.00
2018-12-05T10:25:31.200Z,192.00
2018-12-05T10:26:31.188Z,168.00
2018-12-05T10:27:32.466Z,164.00
2018-12-05T10:28:31.165Z,164.00
2018-12-05T10:29:23.624Z,164.00
2018-12-05T10:30:23.602Z,144.00
2018-12-05T10:31:23.591Z,164.00
2018-12-05T10:32:23.582Z,188.00
2018-12-05T10:33:23.584Z,180.00
2018-12-05T10:34:31.097Z,200.00
2018-12-05T10:35:23.562Z,164.00
2018-12-05T10:36:23.544Z,164.00
2018-12-05T10:37:23.553Z,148.00
2018-12-05T10:38:23.531Z,160.00
2018-12-05T10:39:23.511Z,196.00
2018-12-05T10:40:23.519Z,160.00
2018-12-05T10:41:23.501Z,204.00
2018-12-05T10:42:23.528Z,216.00
2018-12-05T10:43:23.470Z,168.00
2018-12-05T10:44:23.448Z,148.00
2018-12-05T10:45:23.440Z,132.00
2018-12-05T10:46:23.424Z,132.00
2018-12-05T10:47:23.413Z,124.00
2018-12-05T10:48:23.418Z,120.00
2018-12-05T10:49:23.399Z,116.00
2018-12-05T10:50:23.398Z,116.00
2018-12-05T10:51:23.380Z,112.00
2018-12-05T10:52:23.381Z,112.00
2018-12-05T10:53:23.370Z,108.00
2018-12-05T10:54:23.373Z,104.00
2018-12-05T10:55:23.324Z,104.00
2018-12-05T10:56:23.318Z,100.00
2018-12-05T10:57:23.348Z,100.00
2018-12-05T10:58:23.331Z,100.00
2018-12-05T10:59:23.277Z,100.00
2018-12-05T11:00:23.312Z,96.00
2018-12-05T11:01:23.286Z,96.00
2018-12-05T11:02:23.247Z,100.00
2018-12-05T11:03:23.953Z,108.00
2018-12-05T11:04:23.237Z,108.00
2018-12-05T11:05:23.215Z,104.00
2018-12-05T11:06:23.198Z,104.00
2018-12-05T11:07:23.197Z,108.00
2018-12-05T11:08:23.206Z,104.00
2018-12-05T11:09:23.164Z,100.00
2018-12-05T11:10:23.153Z,96.00
2018-12-05T11:11:23.144Z,96.00
2018-12-05T11:12:23.161Z,92.00
2018-12-05T11:13:23.149Z,96.00
2018-12-05T11:14:23.123Z,92.00
2018-12-05T11:15:23.102Z,88.00
2018-12-05T11:16:23.089Z,84.00
2018-12-05T11:17:23.077Z,84.00
2018-12-05T11:18:23.077Z,80.00
2018-12-05T11:19:23.082Z,76.00
2018-12-05T11:20:23.055Z,76.00
2018-12-05T11:21:23.055Z,72.00
2018-12-05T11:22:23.019Z,68.00
2018-12-05T11:23:23.037Z,72.00
2018-12-05T11:24:23.031Z,68.00
2018-12-05T11:25:22.987Z,68.00
2018-12-05T11:26:22.998Z,68.00
2018-12-05T11:27:22.961Z,64.00
2018-12-05T11:28:22.983Z,60.00
2018-12-05T11:29:23.010Z,60.00
2018-12-05T11:30:22.927Z,60.00
2018-12-05T11:31:22.918Z,60.00
2018-12-05T11:32:22.914Z,60.00
2018-12-05T11:33:22.949Z,60.00
2018-12-05T11:34:22.891Z,60.00
2018-12-05T11:35:22.879Z,60.00
2018-12-05T11:36:22.899Z,64.00
2018-12-05T11:37:22.854Z,68.00
2018-12-05T11:38:22.870Z,68.00
2018-12-05T11:39:22.884Z,68.00
2018-12-05T11:40:22.816Z,68.00
2018-12-05T11:41:22.809Z,68.00
2018-12-05T11:42:22.796Z,68.00
2018-12-05T11:43:22.808Z,68.00
2018-12-05T11:44:22.771Z,64.00
2018-12-05T11:45:22.809Z,64.00
2018-12-05T11:46:22.779Z,68.00
2018-12-05T11:47:22.739Z,68.00
2018-12-05T11:48:22.779Z,64.00
2018-12-05T11:49:22.748Z,64.00
2018-12-05T11:50:22.713Z,64.00
2018-12-05T11:51:22.708Z,60.00
2018-12-05T11:52:22.719Z,56.00
2018-12-05T11:53:22.674Z,56.00
2018-12-05T11:54:22.675Z,56.00
2018-12-05T11:55:22.698Z,52.00
2018-12-05T11:56:22.681Z,52.00
2018-12-05T11:57:22.636Z,52.00
2018-12-05T11:58:22.616Z,48.00
2018-12-05T11:59:22.631Z,48.00
2018-12-05T12:00:22.593Z,48.00
2018-12-05T12:01:22.600Z,48.00
2018-12-05T12:02:22.569Z,48.00
2018-12-05T12:03:22.558Z,48.00
2018-12-05T12:04:22.561Z,48.00
2018-12-05T12:05:22.544Z,48.00
2018-12-05T12:06:22.539Z,44.00
2018-12-05T12:07:22.555Z,48.00
2018-12-05T12:08:22.505Z,48.00
2018-12-05T12:09:22.556Z,44.00
2018-12-05T12:10:22.503Z,48.00
2018-12-05T12:11:23.130Z,44.00
2018-12-05T12:12:22.491Z,44.00
2018-12-05T12:13:22.448Z,44.00
2018-12-05T12:14:22.480Z,44.00
2018-12-05T12:15:22.426Z,44.00
2018-12-05T12:16:22.421Z,40.00
2018-12-05T12:17:22.415Z,36.00
2018-12-05T12:18:22.414Z,36.00
2018-12-05T12:19:22.427Z,36.00
2018-12-05T12:20:22.375Z,36.00
2018-12-05T12:21:22.360Z,32.00
2018-12-05T12:22:22.351Z,36.00
2018-12-05T12:23:22.344Z,32.00
2018-12-05T12:24:22.370Z,32.00
2018-12-05T12:25:22.314Z,32.00
2018-12-05T12:26:22.315Z,32.00
2018-12-05T12:27:22.290Z,28.00
2018-12-05T12:28:22.296Z,32.00
2018-12-05T12:29:22.303Z,28.00
2018-12-05T12:30:22.286Z,28.00
2018-12-05T12:31:22.245Z,28.00
2018-12-05T12:32:22.285Z,28.00
2018-12-05T12:33:22.222Z,24.00
2018-12-05T12:34:22.211Z,28.00
2018-12-05T12:35:22.260Z,28.00
2018-12-05T12:36:22.233Z,24.00
2018-12-05T12:37:22.176Z,24.00
2018-12-05T12:38:22.229Z,24.00
2018-12-05T12:39:22.157Z,24.00
2018-12-05T12:40:22.159Z,28.00
2018-12-05T12:41:22.165Z,24.00
2018-12-05T12:42:22.120Z,24.00
2018-12-05T12:43:22.143Z,24.00
2018-12-05T12:44:22.105Z,24.00
2018-12-05T12:45:22.112Z,24.00
2018-12-05T12:46:22.086Z,24.00
2018-12-05T12:47:22.068Z,24.00
2018-12-05T12:48:22.096Z,24.00
2018-12-05T12:49:22.046Z,24.00
2018-12-05T12:50:22.042Z,20.00
2018-12-05T12:51:23.570Z,24.00
2018-12-05T12:52:22.028Z,24.00
2018-12-05T12:53:22.041Z,24.00
2018-12-05T12:54:22.010Z,20.00
2018-12-05T12:55:22.036Z,20.00
2018-12-05T12:56:21.973Z,20.00
2018-12-05T12:57:21.997Z,20.00
2018-12-05T12:58:21.990Z,24.00
2018-12-05T12:59:21.945Z,24.00
2018-12-05T13:00:21.949Z,24.00
2018-12-05T13:01:21.923Z,20.00
2018-12-05T13:02:23.604Z,20.00
2018-12-05T13:03:21.902Z,24.00
2018-12-05T13:04:21.877Z,24.00